Time;durP1;ratioP1;P1;durP2;ratioP2;P2;SDS_P1;SDS_P2;PMS_P1;PMS_P2;Temp;Humidity;BMP_temperature;BMP_pressure;BME280_temperature;BME280_humidity;BME280_pressure;Samples;Min_cycle;Max_cycle;Signal;HPM_P1;HPM_P2
2023/06/08 00:02:04;;;;;;;6.45;5.95;;;13.90;99.90;;;14.73;85.80;97730.97;5172369;28;20214;-66
2023/06/08 00:04:40;;;;;;;6.05;5.60;;;13.90;99.90;;;14.73;85.66;97733.53;5173804;28;20598;-66
2023/06/08 00:07:16;;;;;;;6.88;6.38;;;13.90;99.90;;;14.67;85.67;97741.03;5172485;28;20702;-66
2023/06/08 00:09:50;;;;;;;6.45;5.95;;;13.80;99.90;;;14.69;86.42;97741.97;5176902;28;20959;-66
2023/06/08 00:12:25;;;;;;;6.15;5.60;;;13.80;99.90;;;14.74;86.71;97737.00;5177364;28;20327;-66
2023/06/08 00:14:59;;;;;;;6.90;6.40;;;13.80;99.90;;;14.72;86.28;97742.09;5180325;28;20218;-66
2023/06/08 00:17:32;;;;;;;6.82;6.22;;;13.80;99.90;;;14.74;86.65;97743.03;5178343;28;20222;-66
2023/06/08 00:20:08;;;;;;;5.47;5.18;;;13.80;99.90;;;14.73;86.53;97748.97;5174202;28;20261;-66
2023/06/08 00:22:43;;;;;;;6.10;5.70;;;13.70;99.90;;;14.63;86.99;97744.31;5170069;28;20253;-66
2023/06/08 00:25:16;;;;;;;6.13;5.63;;;13.70;99.90;;;14.60;85.97;97749.34;5178531;28;20229;-66
2023/06/08 00:27:50;;;;;;;6.13;5.72;;;13.60;99.90;;;14.51;86.81;97744.69;5175600;28;20575;-66
2023/06/08 00:30:24;;;;;;;6.78;6.28;;;13.60;99.90;;;14.36;87.10;97746.63;5174065;28;20226;-66
2023/06/08 00:32:57;;;;;;;7.03;6.53;;;13.50;99.90;;;14.42;87.24;97750.31;5179523;28;20226;-66
2023/06/08 00:35:30;;;;;;;6.25;5.78;;;13.40;99.90;;;14.40;87.77;97746.81;5179310;28;20231;-66
2023/06/08 00:38:04;;;;;;;6.07;5.65;;;13.50;99.90;;;14.36;88.09;97742.34;5177810;28;20219;-66
2023/06/08 00:40:37;;;;;;;6.68;6.18;;;13.40;99.90;;;14.33;88.77;97742.22;5179493;28;20344;-66
2023/06/08 00:43:11;;;;;;;6.47;5.97;;;13.40;99.90;;;14.28;88.10;97738.63;5179068;28;20284;-66
2023/06/08 00:45:44;;;;;;;6.78;6.28;;;13.30;99.90;;;14.28;88.82;97737.72;5172413;28;20609;-66
2023/06/08 00:48:18;;;;;;;7.10;6.50;;;13.40;99.90;;;14.27;88.69;97744.53;5177157;28;20714;-66
2023/06/08 00:50:51;;;;;;;7.22;6.70;;;13.40;99.90;;;14.31;88.56;97741.31;5174602;28;20289;-66
2023/06/08 00:53:25;;;;;;;6.90;6.30;;;13.40;99.90;;;14.36;88.17;97741.47;5171782;28;20272;-66
2023/06/08 00:55:58;;;;;;;7.10;6.60;;;13.40;99.90;;;14.34;87.69;97746.56;5174533;28;20650;-66
2023/06/08 00:58:37;;;;;;;6.55;6.03;;;13.30;99.90;;;14.34;87.25;97741.44;5175151;28;20234;-66
2023/06/08 01:01:12;;;;;;;6.95;6.45;;;13.40;99.90;;;14.28;87.43;97738.63;5173505;28;20706;-66
2023/06/08 01:03:46;;;;;;;7.32;6.82;;;13.30;99.90;;;14.21;88.59;97744.31;5172002;28;20317;-66
2023/06/08 01:06:20;;;;;;;6.85;6.35;;;13.30;99.90;;;14.15;88.71;97738.91;5179145;28;20277;-66
2023/06/08 01:09:06;;;;;;;6.63;6.13;;;13.20;99.90;;;14.11;88.43;97737.91;5175863;28;20214;-66
2023/06/08 01:11:54;;;;;;;6.20;5.70;;;13.20;99.90;;;14.07;88.99;97735.16;5178037;28;20583;-66
2023/06/08 01:14:41;;;;;;;6.70;6.20;;;13.10;99.90;;;14.05;89.24;97726.47;5168079;28;20297;-66
2023/06/08 01:17:18;;;;;;;6.50;6.00;;;13.10;99.90;;;14.08;89.04;97736.88;5173444;28;20316;-66
2023/06/08 01:20:09;;;;;;;9.55;8.85;;;13.10;99.90;;;14.08;88.72;97724.94;5176571;28;20253;-66
2023/06/08 01:23:00;;;;;;;10.43;9.52;;;13.00;99.90;;;14.03;87.22;97729.00;5171368;28;20230;-66
2023/06/08 01:25:36;;;;;;;7.60;7.00;;;12.90;99.90;;;13.88;88.52;97729.25;5170544;28;20230;-66
2023/06/08 01:28:16;;;;;;;7.30;6.80;;;12.90;99.90;;;13.85;88.21;97729.13;5172725;28;20222;-66
2023/06/08 01:30:50;;;;;;;7.40;6.88;;;12.90;99.90;;;13.69;90.16;97722.44;5179132;28;21206;-66
2023/06/08 01:33:27;;;;;;;7.18;6.68;;;12.80;99.90;;;13.68;90.69;97722.41;5175375;28;20218;-66
2023/06/08 01:36:07;;;;;;;7.78;7.28;;;12.70;99.90;;;13.64;89.92;97720.50;5173624;28;20249;-66
2023/06/08 01:38:51;;;;;;;6.90;6.50;;;12.70;99.90;;;13.67;90.65;97723.19;5174690;28;20227;-66
2023/06/08 01:41:32;;;;;;;7.63;7.03;;;12.80;99.90;;;13.67;90.12;97728.34;5171986;28;20223;-66
2023/06/08 01:44:08;;;;;;;6.85;6.45;;;12.80;99.90;;;13.68;91.21;97724.97;5175681;28;20226;-66
2023/06/08 01:46:44;;;;;;;7.47;6.97;;;12.80;99.90;;;13.60;91.16;97726.34;5174634;28;20222;-66
2023/06/08 01:49:18;;;;;;;7.60;7.10;;;12.80;99.90;;;13.49;90.92;97731.88;5176759;28;20308;-66
2023/06/08 01:51:51;;;;;;;7.70;7.07;;;12.60;99.90;;;13.36;91.83;97729.56;5174921;28;20285;-66
2023/06/08 01:54:25;;;;;;;7.90;7.30;;;12.50;99.90;;;13.35;92.34;97729.50;5176686;28;20230;-66
2023/06/08 01:56:59;;;;;;;7.63;7.03;;;12.50;99.90;;;13.32;92.49;97725.13;5178028;28;20296;-66
2023/06/08 01:59:33;;;;;;;8.15;7.55;;;12.50;99.90;;;13.25;92.14;97717.94;5179590;28;20265;-66
2023/06/08 02:02:09;;;;;;;8.32;7.72;;;12.50;99.90;;;13.29;91.92;97715.59;5174763;28;20230;-66
2023/06/08 02:04:43;;;;;;;8.20;7.60;;;12.50;99.90;;;13.27;92.88;97713.75;5176282;28;20238;-66
2023/06/08 02:07:16;;;;;;;8.52;7.88;;;12.50;99.90;;;13.32;93.03;97712.28;5172341;28;20226;-66
2023/06/08 02:09:50;;;;;;;8.30;7.70;;;12.50;99.90;;;13.37;92.96;97718.50;5174269;28;20293;-66
2023/06/08 02:12:24;;;;;;;8.77;8.07;;;12.60;99.90;;;13.50;92.51;97719.91;5173524;28;20617;-66
2023/06/08 02:14:58;;;;;;;8.15;7.50;;;12.60;99.90;;;13.50;91.76;97715.63;5172965;28;20253;-66
2023/06/08 02:17:33;;;;;;;7.43;6.93;;;12.60;99.90;;;13.48;91.81;97722.41;5172605;28;20733;-66
2023/06/08 02:20:08;;;;;;;8.18;7.57;;;12.50;99.90;;;13.36;91.75;97719.28;5171151;28;20355;-66
2023/06/08 02:22:42;;;;;;;8.30;7.72;;;12.50;99.90;;;13.29;92.79;97719.84;5173231;28;20276;-66
2023/06/08 02:25:15;;;;;;;7.93;7.22;;;12.40;99.90;;;13.29;92.31;97714.72;5174761;28;20284;-66
2023/06/08 02:27:50;;;;;;;8.52;7.93;;;12.40;99.90;;;13.33;92.08;97716.59;5173263;28;20650;-66
2023/06/08 02:30:23;;;;;;;8.88;8.18;;;12.40;99.90;;;13.35;92.60;97721.81;5172132;28;20778;-66
2023/06/08 02:32:57;;;;;;;8.35;7.78;;;12.40;99.90;;;13.36;93.42;97713.28;5177429;28;20272;-66
2023/06/08 02:35:30;;;;;;;8.70;8.10;;;12.50;99.90;;;13.36;93.23;97711.59;5170203;28;20234;-66
2023/06/08 02:38:03;;;;;;;8.13;7.53;;;12.50;99.90;;;13.44;91.56;97717.06;5177290;28;20237;-66
2023/06/08 02:40:36;;;;;;;8.25;7.65;;;12.50;99.90;;;13.41;91.54;97711.81;5175065;28;20749;-66
2023/06/08 02:43:11;;;;;;;8.35;7.65;;;12.50;99.90;;;13.36;91.96;97714.16;5171727;28;20971;-66
2023/06/08 02:45:44;;;;;;;8.05;7.53;;;12.40;99.90;;;13.29;91.52;97719.84;5172562;28;20229;-66
2023/06/08 02:48:17;;;;;;;7.43;6.93;;;12.30;99.90;;;12.99;91.71;97720.22;5175662;28;20705;-66
2023/06/08 02:50:50;;;;;;;7.55;7.05;;;12.10;99.90;;;12.74;93.18;97723.34;5176178;28;20631;-66
2023/06/08 02:53:23;;;;;;;7.30;6.80;;;11.90;99.90;;;12.65;94.24;97720.38;5175995;28;20762;-66
2023/06/08 02:55:58;;;;;;;7.40;6.90;;;11.80;99.90;;;12.69;93.47;97713.69;5173252;28;20251;-66
2023/06/08 02:58:33;;;;;;;7.80;7.22;;;11.80;99.90;;;12.60;94.01;97715.00;5173699;28;20238;-66
2023/06/08 03:01:14;;;;;;;7.85;7.28;;;11.80;99.90;;;12.70;93.95;97715.44;5169237;28;20710;-66
2023/06/08 03:03:54;;;;;;;8.43;7.82;;;11.90;99.90;;;12.74;94.10;97713.09;5171391;28;20233;-66
2023/06/08 03:06:33;;;;;;;8.15;7.45;;;11.90;99.90;;;12.77;94.26;97717.47;5174744;28;20257;-66
2023/06/08 03:09:06;;;;;;;7.85;7.35;;;11.90;99.90;;;12.68;94.56;97717.94;5172868;28;20232;-66
2023/06/08 03:11:39;;;;;;;7.85;7.32;;;11.90;99.90;;;12.62;94.81;97717.66;5179818;28;20222;-66
2023/06/08 03:14:14;;;;;;;8.00;7.40;;;11.90;99.90;;;12.52;95.72;97716.31;5194403;28;20228;-66
2023/06/08 03:16:48;;;;;;;8.43;7.82;;;11.80;99.90;;;12.53;95.02;97712.97;5190069;28;20225;-66
2023/06/08 03:19:21;;;;;;;9.10;8.40;;;11.80;99.90;;;12.56;95.04;97717.34;5189428;28;20288;-66
2023/06/08 03:21:55;;;;;;;8.40;7.80;;;11.80;99.90;;;12.62;95.52;97718.53;5199292;28;20222;-66
2023/06/08 03:24:31;;;;;;;8.07;7.57;;;11.90;99.90;;;12.69;95.52;97712.00;5196821;28;20807;-66
2023/06/08 03:27:06;;;;;;;9.10;8.40;;;11.90;99.90;;;12.72;95.38;97714.69;5199130;28;20230;-66
2023/06/08 03:29:40;;;;;;;8.50;7.90;;;11.90;99.90;;;12.66;95.67;97719.53;5197889;28;20243;-66
2023/06/08 03:32:13;;;;;;;8.48;7.85;;;11.90;99.90;;;12.68;95.14;97717.94;5198280;28;20233;-66
2023/06/08 03:34:48;;;;;;;8.20;7.70;;;11.90;99.90;;;12.67;94.94;97715.28;5200042;28;20709;-66
2023/06/08 03:37:21;;;;;;;8.30;7.70;;;11.80;99.90;;;12.73;94.36;97720.69;5194572;28;20705;-66
2023/06/08 03:39:54;;;;;;;7.57;7.07;;;11.90;99.90;;;12.76;94.78;97725.97;5198326;28;20468;-66
2023/06/08 03:42:27;;;;;;;9.43;8.73;;;12.00;99.90;;;12.80;94.94;97726.19;5194752;28;20229;-66
2023/06/08 03:45:02;;;;;;;9.05;8.45;;;12.00;99.90;;;12.86;94.78;97717.91;5190816;28;20281;-66
2023/06/08 03:47:36;;;;;;;8.60;7.90;;;12.00;99.90;;;12.78;94.51;97722.66;5198333;28;20233;-65
2023/06/08 03:50:11;;;;;;;8.95;8.15;;;12.00;99.90;;;12.79;94.19;97720.97;5193860;28;20705;-66
2023/06/08 03:52:45;;;;;;;9.05;8.35;;;12.00;99.90;;;12.72;94.64;97718.94;5197408;28;20239;-65
2023/06/08 03:55:18;;;;;;;8.70;8.07;;;11.90;99.90;;;12.70;94.78;97725.69;5199882;28;20725;-66
2023/06/08 03:57:52;;;;;;;9.50;8.80;;;11.90;99.90;;;12.80;94.09;97726.19;5198771;28;20237;-65
2023/06/08 04:00:26;;;;;;;9.13;8.48;;;12.00;99.90;;;12.85;94.48;97726.41;5192221;28;20238;-66
2023/06/08 04:03:00;;;;;;;9.50;8.75;;;12.00;99.90;;;12.91;93.53;97720.69;5195979;28;20229;-66
2023/06/08 04:05:34;;;;;;;8.93;8.25;;;12.00;99.90;;;12.90;93.15;97718.91;5198368;28;20264;-66
2023/06/08 04:08:07;;;;;;;9.38;8.73;;;12.00;99.90;;;12.87;92.97;97726.47;5199158;28;20221;-67
2023/06/08 04:10:40;;;;;;;9.52;8.70;;;12.00;99.90;;;12.88;92.95;97721.41;5197068;28;20255;-66
2023/06/08 04:13:14;;;;;;;9.65;8.85;;;12.00;99.90;;;12.71;93.96;97722.34;5193337;28;20314;-66
2023/06/08 04:15:48;;;;;;;10.15;9.35;;;12.00;99.90;;;12.63;95.00;97724.53;5196575;28;20225;-65
2023/06/08 04:18:21;;;;;;;9.45;8.75;;;11.90;99.90;;;12.60;95.80;97722.69;5195764;28;20646;-66
2023/06/08 04:20:55;;;;;;;10.30;9.48;;;11.90;99.90;;;12.66;95.46;97724.66;5196243;28;20234;-66
2023/06/08 04:23:28;;;;;;;10.15;9.35;;;12.00;99.90;;;12.53;96.35;97724.91;5196377;28;20232;-66
2023/06/08 04:26:03;;;;;;;9.75;9.05;;;12.00;99.90;;;12.59;96.30;97727.75;5196124;28;20617;-65
2023/06/08 04:28:36;;;;;;;10.13;9.32;;;11.90;99.90;;;12.67;96.14;97720.41;5196788;28;20283;-66
2023/06/08 04:31:11;;;;;;;10.50;9.60;;;12.10;99.90;;;12.74;95.67;97735.28;5197567;28;20275;-65
2023/06/08 04:33:45;;;;;;;10.15;9.35;;;12.10;99.90;;;12.84;95.85;97735.75;5194007;28;20221;-65
2023/06/08 04:36:18;;;;;;;10.05;9.25;;;12.20;99.90;;;13.07;93.91;97731.69;5192482;28;20309;-65
2023/06/08 04:38:51;;;;;;;9.88;9.18;;;12.40;99.90;;;13.31;93.35;97733.66;5193527;28;20228;-66
2023/06/08 04:41:25;;;;;;;9.88;9.18;;;12.60;99.90;;;13.56;92.63;97734.69;5187616;28;20235;-66
2023/06/08 04:44:01;;;;;;;9.90;9.10;;;12.80;99.90;;;13.96;92.06;97738.16;5193067;28;20249;-66
2023/06/08 04:46:37;;;;;;;10.10;9.30;;;13.30;99.90;;;14.54;88.43;97739.69;5187008;28;20288;-66
2023/06/08 04:49:12;;;;;;;9.82;9.13;;;13.80;99.90;;;15.16;85.03;97737.75;5190261;28;20328;-66
2023/06/08 04:51:47;;;;;;;10.10;9.23;;;14.30;99.90;;;15.69;82.02;97736.25;5185686;28;20227;-66
2023/06/08 04:54:21;;;;;;;8.68;8.00;;;14.60;99.90;;;16.21;78.71;97743.19;5189896;28;20221;-66
2023/06/08 04:56:58;;;;;;;8.73;8.13;;;14.90;99.90;;;16.68;75.68;97735.19;5185804;28;20245;-66
2023/06/08 04:59:31;;;;;;;8.70;8.00;;;15.20;99.90;;;17.09;73.11;97731.31;5190402;28;20229;-65
2023/06/08 05:02:06;;;;;;;8.30;7.63;;;15.50;99.90;;;17.52;71.14;97732.53;5187069;28;20229;-66
2023/06/08 05:04:39;;;;;;;8.65;8.02;;;15.80;99.90;;;17.88;68.67;97734.38;5187020;28;20286;-66
2023/06/08 05:07:13;;;;;;;8.30;7.70;;;16.10;99.90;;;18.03;66.87;97739.09;5188207;28;20245;-66
2023/06/08 05:09:46;;;;;;;8.35;7.60;;;16.30;99.90;;;18.50;65.70;97738.53;5191344;28;20574;-66
2023/06/08 05:12:19;;;;;;;8.07;7.38;;;16.50;99.90;;;18.88;63.37;97740.31;5186082;28;20226;-67
2023/06/08 05:14:52;;;;;;;7.72;7.15;;;16.90;99.90;;;19.25;62.39;97735.91;5190516;28;20236;-66
2023/06/08 05:17:27;;;;;;;8.05;7.38;;;17.30;99.90;;;19.61;60.56;97727.16;5185463;28;20227;-66
2023/06/08 05:20:00;;;;;;;8.35;7.55;;;17.50;99.90;;;19.93;59.13;97732.09;5187872;28;20232;-66
2023/06/08 05:22:33;;;;;;;8.13;7.53;;;17.90;99.90;;;20.11;57.95;97722.03;5183164;28;20226;-66
2023/06/08 05:25:08;;;;;;;8.88;8.18;;;18.00;99.90;;;19.99;57.79;97727.00;5191335;28;20225;-66
2023/06/08 05:27:41;;;;;;;8.35;7.70;;;18.00;99.90;;;20.29;56.93;97730.97;5187543;28;20221;-66
2023/06/08 05:30:15;;;;;;;7.68;7.18;;;18.10;99.90;;;20.55;56.36;97732.31;5187339;28;20219;-66
2023/06/08 05:32:49;;;;;;;8.05;7.35;;;18.30;99.90;;;20.76;55.64;97733.47;5188791;28;20234;-66
2023/06/08 05:35:23;;;;;;;8.40;7.70;;;18.50;99.90;;;20.81;55.35;97732.69;5190865;28;20228;-66
2023/06/08 05:37:56;;;;;;;7.68;6.97;;;18.80;99.90;;;21.01;55.19;97729.50;5189105;28;20217;-66
2023/06/08 05:40:29;;;;;;;8.30;7.50;;;19.00;99.90;;;21.48;54.80;97726.66;5191712;28;20237;-66
2023/06/08 05:43:02;;;;;;;8.32;7.60;;;19.40;99.90;;;21.80;53.17;97729.63;5188287;28;20269;-66
2023/06/08 05:45:36;;;;;;;7.50;7.00;;;19.40;99.90;;;22.06;52.14;97737.69;5189030;28;20249;-66
2023/06/08 05:48:10;;;;;;;8.45;7.75;;;19.60;99.90;;;22.20;51.77;97730.03;5183568;28;20767;-66
2023/06/08 05:50:44;;;;;;;8.52;7.85;;;19.80;99.90;;;22.36;51.38;97726.72;5187923;28;20316;-65
2023/06/08 05:53:17;;;;;;;10.35;9.55;;;19.90;99.90;;;22.44;51.50;97732.88;5188567;28;20226;-66
2023/06/08 05:55:51;;;;;;;23.70;21.85;;;20.00;99.90;;;22.71;50.85;97728.72;5189502;28;20272;-65
2023/06/08 05:58:24;;;;;;;10.98;10.07;;;20.40;99.90;;;22.79;51.47;97732.25;5183928;28;20234;-67
2023/06/08 06:01:10;;;;;;;7.97;7.45;;;20.60;99.90;;;23.02;50.93;97718.50;5190051;28;20225;-66
2023/06/08 06:03:45;;;;;;;7.13;6.63;;;20.70;99.90;;;23.32;49.37;97717.78;5186409;28;20279;-65
2023/06/08 06:06:18;;;;;;;8.30;7.65;;;20.80;99.30;;;23.49;49.11;97731.75;5188142;28;20654;-66
2023/06/08 06:08:52;;;;;;;8.38;7.72;;;20.90;99.50;;;23.25;49.54;97719.50;5192347;28;20275;-65
2023/06/08 06:11:25;;;;;;;7.72;7.22;;;20.60;99.70;;;23.19;49.70;97724.69;5189083;28;20226;-66
2023/06/08 06:13:59;;;;;;;7.25;6.75;;;20.90;99.40;;;23.74;48.81;97726.66;5185478;28;20315;-66
2023/06/08 06:16:33;;;;;;;7.97;7.38;;;21.20;99.10;;;24.21;47.95;97724.13;5183571;28;20267;-66
2023/06/08 06:19:07;;;;;;;8.25;7.65;;;21.30;98.70;;;24.37;46.65;97724.13;5188169;28;20643;-66
2023/06/08 06:21:40;;;;;;;8.27;7.57;;;21.50;98.00;;;24.47;46.35;97715.47;5186312;28;20500;-66
2023/06/08 06:24:14;;;;;;;9.10;8.40;;;21.50;97.90;;;24.54;46.32;97721.56;5189562;28;20556;-66
2023/06/08 06:26:47;;;;;;;7.55;7.05;;;21.50;97.90;;;24.95;45.97;97716.25;5193325;28;20225;-66
2023/06/08 06:29:20;;;;;;;7.78;7.28;;;21.90;97.60;;;25.03;45.85;97714.50;5188858;28;20291;-65
2023/06/08 06:31:53;;;;;;;8.57;7.97;;;22.00;97.30;;;25.44;44.96;97713.53;5186631;28;20256;-66
2023/06/08 06:34:28;;;;;;;8.07;7.57;;;22.40;96.60;;;25.55;45.33;97716.97;5184760;28;20236;-65
2023/06/08 06:37:02;;;;;;;8.77;8.18;;;22.80;96.50;;;25.57;44.37;97712.56;5188790;28;20221;-66
2023/06/08 06:39:35;;;;;;;8.38;7.72;;;23.00;95.90;;;26.10;43.22;97720.13;5183104;28;20252;-65
2023/06/08 06:42:09;;;;;;;8.85;8.15;;;23.10;95.30;;;26.39;42.94;97712.94;5187671;28;20612;-66
2023/06/08 06:44:42;;;;;;;8.20;7.63;;;23.40;95.00;;;26.73;41.97;97721.41;5187106;28;20228;-66
2023/06/08 06:47:17;;;;;;;8.40;7.80;;;23.60;94.60;;;27.17;41.52;97709.59;5186644;28;20218;-67
2023/06/08 06:49:52;;;;;;;8.88;8.25;;;24.00;93.70;;;27.20;41.54;97716.56;5182786;28;20283;-67
2023/06/08 06:52:25;;;;;;;8.13;7.55;;;24.20;93.70;;;27.46;40.82;97715.38;5191360;28;20233;-66
2023/06/08 06:54:59;;;;;;;8.05;7.45;;;24.70;92.90;;;27.67;39.74;97717.75;5187673;28;20227;-68
2023/06/08 06:57:32;;;;;;;7.65;7.13;;;24.80;91.90;;;28.07;38.36;97719.81;5190645;28;20228;-68
2023/06/08 07:00:09;;;;;;;7.93;7.13;;;24.90;91.20;;;27.95;38.63;97714.75;5192976;28;20225;-69
2023/06/08 07:02:43;;;;;;;7.78;7.07;;;25.10;90.80;;;28.13;38.38;97713.59;5191059;28;20316;-67
2023/06/08 07:05:19;;;;;;;7.40;6.90;;;25.20;90.40;;;28.48;38.37;97713.09;5190678;28;20821;-68
2023/06/08 07:07:52;;;;;;;7.22;6.70;;;25.40;90.50;;;28.65;38.37;97713.66;5192740;28;20240;-66
2023/06/08 07:10:25;;;;;;;6.97;6.43;;;25.70;90.20;;;28.82;37.92;97709.88;5186887;28;20768;-66
2023/06/08 07:12:59;;;;;;;7.57;6.97;;;26.00;89.30;;;28.93;36.98;97705.25;5189850;28;20305;-67
2023/06/08 07:15:33;;;;;;;7.35;6.78;;;26.30;88.30;;;28.48;39.00;97705.19;5191512;28;20318;-68
2023/06/08 07:18:06;;;;;;;7.43;6.82;;;26.00;90.00;;;28.99;37.35;97692.00;5193858;28;20225;-68
2023/06/08 07:20:41;;;;;;;7.28;6.78;;;25.90;89.40;;;29.00;37.87;97698.97;5191317;28;20594;-67
2023/06/08 07:23:14;;;;;;;7.47;6.97;;;26.20;88.50;;;29.22;36.88;97706.47;5191765;28;20224;-67
2023/06/08 07:26:08;;;;;;;7.20;6.55;;;26.50;86.60;;;29.57;35.56;97701.38;5191877;28;20316;-66
2023/06/08 07:29:02;;;;;;;6.85;6.35;;;26.50;86.00;;;29.68;35.75;97705.59;5196267;28;20232;-67
2023/06/08 07:31:38;;;;;;;6.75;6.22;;;26.90;85.90;;;29.86;35.30;97700.75;5189839;28;20232;-66
2023/06/08 07:34:11;;;;;;;6.97;6.47;;;27.30;84.00;;;30.05;34.43;97703.84;5190585;28;20232;-66
2023/06/08 07:36:45;;;;;;;6.70;6.20;;;27.30;82.70;;;29.84;33.96;97699.03;5191993;28;20303;-67
2023/06/08 07:39:19;;;;;;;6.50;6.00;;;27.10;81.30;;;29.69;34.86;97704.66;5192374;28;20312;-66
2023/06/08 07:41:52;;;;;;;6.68;6.18;;;27.30;82.30;;;29.80;34.78;97698.25;5187055;28;20221;-66
2023/06/08 07:44:25;;;;;;;6.82;6.30;;;27.50;82.20;;;30.24;33.84;97706.06;5186739;28;20728;-66
2023/06/08 07:47:00;;;;;;;6.50;6.07;;;27.70;80.00;;;30.46;34.02;97703.75;5187879;28;20233;-67
2023/06/08 07:49:34;;;;;;;6.13;5.72;;;28.10;80.40;;;30.81;33.30;97697.59;5191715;28;20236;-66
2023/06/08 07:52:09;;;;;;;6.88;6.38;;;28.20;80.00;;;31.24;33.30;97699.06;5190907;28;20229;-68
2023/06/08 07:54:42;;;;;;;6.88;6.38;;;28.30;81.20;;;31.41;33.06;97699.47;5190799;28;20233;-65
2023/06/08 07:57:15;;;;;;;6.32;5.82;;;28.50;81.10;;;31.69;33.01;97701.31;5191550;28;20275;-67
2023/06/08 07:59:49;;;;;;;6.22;5.75;;;28.80;80.60;;;31.79;32.30;97702.75;5188793;28;20248;-67
2023/06/08 08:02:22;;;;;;;7.07;6.57;;;28.70;79.60;;;31.87;32.13;97705.16;5187204;28;20237;-66
2023/06/08 08:04:56;;;;;;;5.85;5.43;;;28.30;80.50;;;31.95;32.19;97697.03;5186457;28;20795;-66
2023/06/08 08:07:30;;;;;;;6.25;5.85;;;28.50;79.30;;;32.10;32.45;97696.53;5190259;28;20229;-67
2023/06/08 08:10:05;;;;;;;6.30;5.80;;;28.70;79.60;;;32.14;31.21;97692.88;5190675;28;20221;-68
2023/06/08 08:12:39;;;;;;;6.10;5.68;;;29.00;76.80;;;32.62;31.01;97692.19;5189255;28;20937;-67
2023/06/08 08:15:12;;;;;;;5.78;5.38;;;29.20;77.20;;;33.01;29.51;97682.94;5187749;28;20254;-67
2023/06/08 08:17:45;;;;;;;5.97;5.47;;;29.20;76.10;;;32.68;29.48;97683.16;5188628;28;20268;-66
2023/06/08 08:20:18;;;;;;;6.20;5.75;;;29.20;76.30;;;32.36;30.54;97689.53;5183327;28;20317;-67
2023/06/08 08:22:53;;;;;;;6.20;5.80;;;29.40;75.70;;;32.09;31.50;97694.81;5193879;28;20232;-67
2023/06/08 08:25:26;;;;;;;6.30;5.80;;;29.50;75.90;;;31.98;31.69;97689.00;5192298;28;20282;-66
2023/06/08 08:28:00;;;;;;;5.57;5.18;;;29.40;76.50;;;31.63;31.57;97685.63;5189276;28;20242;-67
2023/06/08 08:30:33;;;;;;;6.13;5.63;;;29.40;74.80;;;31.33;31.72;97688.22;5189970;28;20223;-67
2023/06/08 08:33:06;;;;;;;6.18;5.78;;;29.30;74.70;;;31.37;32.01;97686.41;5187281;28;20249;-67
2023/06/08 08:35:39;;;;;;;5.88;5.53;;;29.20;74.90;;;31.45;31.44;97681.78;5190184;28;20230;-67
2023/06/08 08:38:14;;;;;;;5.43;5.00;;;29.10;74.30;;;31.13;32.02;97685.28;5186882;28;20214;-66
2023/06/08 08:40:49;;;;;;;6.18;5.70;;;29.20;74.90;;;30.88;32.78;97685.13;5186535;28;20224;-68
2023/06/08 08:43:30;;;;;;;6.40;6.00;;;29.10;75.30;;;30.98;32.73;97676.03;5191070;28;20231;-68
2023/06/08 08:46:07;;;;;;;5.80;5.40;;;29.20;75.70;;;31.08;32.67;97674.88;5183376;28;20225;-67
2023/06/08 08:48:43;;;;;;;6.20;5.80;;;29.60;73.90;;;31.21;32.25;97672.72;5193417;28;20633;-67
2023/06/08 08:51:19;;;;;;;5.32;4.93;;;29.70;74.40;;;31.36;31.55;97668.81;5188860;28;20786;-67
2023/06/08 08:53:55;;;;;;;6.03;5.50;;;29.90;72.90;;;30.91;31.76;97670.06;5189496;28;20239;-67
2023/06/08 08:56:29;;;;;;;5.70;5.30;;;29.70;72.10;;;31.01;31.67;97670.66;5190372;28;20259;-67
2023/06/08 08:59:05;;;;;;;5.72;5.43;;;29.90;71.80;;;31.02;32.26;97674.16;5187628;28;20225;-68
2023/06/08 09:01:41;;;;;;;5.70;5.30;;;29.90;72.60;;;30.67;32.96;97670.66;5194128;28;20212;-66
2023/06/08 09:04:14;;;;;;;5.85;5.35;;;29.70;72.90;;;30.93;33.15;97664.72;5195723;28;20279;-67
2023/06/08 09:06:49;;;;;;;5.90;5.40;;;29.90;73.10;;;31.25;32.11;97666.47;5195867;28;20677;-68
2023/06/08 09:09:24;;;;;;;6.13;5.72;;;30.10;71.60;;;30.98;31.51;97668.97;5192337;28;20221;-68
2023/06/08 09:11:59;;;;;;;5.63;5.22;;;30.10;70.70;;;31.02;32.23;97660.94;5198291;28;20266;-68
2023/06/08 09:14:32;;;;;;;5.45;5.05;;;30.00;71.50;;;31.22;32.60;97658.63;5193350;28;20236;-67
2023/06/08 09:17:07;;;;;;;5.55;5.05;;;30.30;70.90;;;31.32;31.51;97654.78;5199238;28;20257;-68
2023/06/08 09:19:53;;;;;;;6.07;5.57;;;30.40;69.40;;;31.17;31.28;97658.75;5197865;28;20236;-67
2023/06/08 09:22:29;;;;;;;5.95;5.53;;;30.10;69.50;;;31.15;31.00;97652.63;5196345;28;20359;-68
2023/06/08 09:25:09;;;;;;;5.55;5.15;;;30.20;69.40;;;31.16;28.71;97650.84;5191951;28;20239;-67
2023/06/08 09:27:43;;;;;;;5.93;5.47;;;30.30;63.00;;;31.24;30.40;97646.22;5198407;28;20291;-68
2023/06/08 09:30:24;;;;;;;6.03;5.60;;;30.30;67.80;;;31.15;29.04;97646.50;5197061;28;20316;-67
2023/06/08 09:33:01;;;;;;;5.57;5.10;;;30.00;64.20;;;30.73;27.45;97657.31;5199317;28;20229;-68
2023/06/08 09:35:35;;;;;;;5.32;4.93;;;29.80;61.40;;;29.99;27.48;97648.63;5195006;28;20233;-68
2023/06/08 09:38:18;;;;;;;5.63;5.18;;;29.40;60.40;;;30.00;28.28;97646.84;5196737;28;20217;-68
2023/06/08 09:41:12;;;;;;;5.60;5.10;;;29.30;62.00;;;30.38;28.50;97640.63;5201316;28;20262;-68
2023/06/08 09:43:48;;;;;;;5.68;5.18;;;29.70;62.80;;;30.74;27.12;97633.53;5190255;28;20610;-67
2023/06/08 09:46:38;;;;;;;5.15;4.85;;;30.00;60.30;;;30.63;26.44;97645.28;5195510;28;20253;-67
2023/06/08 09:49:13;;;;;;;4.85;4.53;;;29.90;59.10;;;30.39;26.66;97633.59;5198941;28;20792;-68
2023/06/08 09:51:49;;;;;;;5.65;5.25;;;29.70;59.30;;;30.58;27.29;97633.97;5192722;28;20229;-69
2023/06/08 09:54:24;;;;;;;5.57;5.18;;;29.80;59.70;;;29.64;27.64;97623.06;5195404;28;20229;-69
2023/06/08 09:57:00;;;;;;;5.47;5.07;;;29.20;60.10;;;29.75;28.40;97625.47;5199508;28;20233;-69
2023/06/08 09:59:46;;;;;;;4.97;4.63;;;28.90;61.60;;;29.60;27.91;97624.03;5187251;28;20270;-68
2023/06/08 10:02:22;;;;;;;5.45;5.05;;;29.00;60.00;;;29.69;27.68;97622.97;5199778;28;20221;-68
2023/06/08 10:05:00;;;;;;;5.88;5.38;;;29.00;60.30;;;29.98;27.43;97607.31;5189143;28;20229;-68
2023/06/08 10:07:36;;;;;;;5.38;5.07;;;29.40;60.00;;;30.15;28.87;97613.97;5194965;28;20225;-69
2023/06/08 10:10:18;;;;;;;5.60;5.20;;;29.50;62.10;;;30.34;28.69;97615.25;5193092;28;20882;-69
2023/06/08 10:12:54;;;;;;;5.82;5.32;;;29.70;61.10;;;30.47;29.02;97603.47;5195383;28;20476;-69
2023/06/08 10:15:28;;;;;;;5.65;5.15;;;29.80;62.70;;;30.67;27.65;97602.91;5190237;28;20252;-69
2023/06/08 10:18:02;;;;;;;5.20;4.80;;;30.10;60.00;;;30.82;27.29;97604.31;5189074;28;20220;-67
2023/06/08 10:20:37;;;;;;;5.95;5.45;;;30.10;60.00;;;30.62;27.20;97607.47;5183103;28;20227;-66
2023/06/08 10:23:18;;;;;;;5.97;5.57;;;29.70;60.10;;;30.36;29.24;97597.63;5185853;28;20296;-69
2023/06/08 10:25:55;;;;;;;5.50;5.10;;;29.40;62.80;;;30.26;29.63;97596.13;5187900;28;20224;-67
2023/06/08 10:28:31;;;;;;;6.13;5.72;;;29.30;63.60;;;30.40;28.53;97604.53;5188334;28;20225;-68
2023/06/08 10:31:34;;;;;;;5.68;5.28;;;29.60;62.00;;;30.68;27.35;97593.25;5188538;28;20232;-66
2023/06/08 10:34:13;;;;;;;5.32;4.93;;;29.90;59.70;;;30.91;27.87;97584.72;5188583;28;20310;-66
2023/06/08 10:36:48;;;;;;;5.68;5.28;;;30.10;60.60;;;31.14;27.23;97587.53;5190567;28;20227;-69
2023/06/08 10:39:21;;;;;;;5.93;5.47;;;30.50;59.70;;;31.36;26.31;97587.78;5189066;28;20237;-68
2023/06/08 10:41:57;;;;;;;5.68;5.22;;;30.60;58.20;;;31.23;25.93;97580.25;5188693;28;20697;-69
2023/06/08 10:44:36;;;;;;;5.80;5.40;;;30.20;58.20;;;31.14;26.21;97579.63;5190947;28;20240;-69
2023/06/08 10:47:13;;;;;;;6.03;5.60;;;30.10;58.40;;;30.92;27.22;97571.44;5191625;28;20214;-68
2023/06/08 10:49:47;;;;;;;5.72;5.32;;;30.00;59.40;;;30.71;27.37;97577.31;5190426;28;20217;-69
2023/06/08 10:52:22;;;;;;;5.55;5.15;;;29.80;60.00;;;30.74;28.15;97574.59;5191897;28;20356;-67